sensor_id;sensor_type;location;lat;lon;timestamp;temperature;humidity
4376;DHT22;2202;50.866;12.750;2022-09-09T00:01:49;14.30;86.60
4376;DHT22;2202;50.866;12.750;2022-09-09T00:04:25;14.30;86.40
4376;DHT22;2202;50.866;12.750;2022-09-09T00:07:00;14.30;86.20
4376;DHT22;2202;50.866;12.750;2022-09-09T00:09:32;14.40;85.40
4376;DHT22;2202;50.866;12.750;2022-09-09T00:12:10;14.40;85.20
4376;DHT22;2202;50.866;12.750;2022-09-09T00:14:43;14.40;85.00
4376;DHT22;2202;50.866;12.750;2022-09-09T00:17:14;14.40;85.40
4376;DHT22;2202;50.866;12.750;2022-09-09T00:19:50;14.40;85.40
4376;DHT22;2202;50.866;12.750;2022-09-09T00:22:20;14.30;85.40
4376;DHT22;2202;50.866;12.750;2022-09-09T00:24:52;14.30;85.40
4376;DHT22;2202;50.866;12.750;2022-09-09T00:27:25;14.30;85.40
4376;DHT22;2202;50.866;12.750;2022-09-09T00:29:56;14.30;85.80
4376;DHT22;2202;50.866;12.750;2022-09-09T00:32:29;14.30;86.20
4376;DHT22;2202;50.866;12.750;2022-09-09T00:35:02;14.20;86.00
4376;DHT22;2202;50.866;12.750;2022-09-09T00:37:31;14.20;85.80
4376;DHT22;2202;50.866;12.750;2022-09-09T00:40:02;14.20;86.20
4376;DHT22;2202;50.866;12.750;2022-09-09T00:42:40;14.10;86.80
4376;DHT22;2202;50.866;12.750;2022-09-09T00:45:32;14.10;87.40
4376;DHT22;2202;50.866;12.750;2022-09-09T00:48:05;14.00;88.00
4376;DHT22;2202;50.866;12.750;2022-09-09T00:50:45;13.90;88.60
4376;DHT22;2202;50.866;12.750;2022-09-09T00:53:27;13.80;89.60
4376;DHT22;2202;50.866;12.750;2022-09-09T00:56:08;13.60;90.10
4376;DHT22;2202;50.866;12.750;2022-09-09T00:58:38;13.60;90.20
4376;DHT22;2202;50.866;12.750;2022-09-09T01:01:06;13.60;90.30
4376;DHT22;2202;50.866;12.750;2022-09-09T01:03:37;13.50;90.40
4376;DHT22;2202;50.866;12.750;2022-09-09T01:06:16;13.60;90.30
4376;DHT22;2202;50.866;12.750;2022-09-09T01:09:00;13.60;90.00
4376;DHT22;2202;50.866;12.750;2022-09-09T01:11:36;13.70;89.80
4376;DHT22;2202;50.866;12.750;2022-09-09T01:14:19;13.80;88.60
4376;DHT22;2202;50.866;12.750;2022-09-09T01:16:53;13.90;88.20
4376;DHT22;2202;50.866;12.750;2022-09-09T01:19:38;14.00;87.60
4376;DHT22;2202;50.866;12.750;2022-09-09T01:22:15;14.10;86.40
4376;DHT22;2202;50.866;12.750;2022-09-09T01:25:15;14.30;86.00
4376;DHT22;2202;50.866;12.750;2022-09-09T01:27:46;14.30;85.00
4376;DHT22;2202;50.866;12.750;2022-09-09T01:30:16;14.40;85.00
4376;DHT22;2202;50.866;12.750;2022-09-09T01:32:45;14.40;85.00
4376;DHT22;2202;50.866;12.750;2022-09-09T01:35:19;14.40;84.60
4376;DHT22;2202;50.866;12.750;2022-09-09T01:37:51;14.50;84.20
4376;DHT22;2202;50.866;12.750;2022-09-09T01:40:18;14.50;84.00
4376;DHT22;2202;50.866;12.750;2022-09-09T01:42:47;14.60;83.60
4376;DHT22;2202;50.866;12.750;2022-09-09T01:45:14;14.50;83.80
4376;DHT22;2202;50.866;12.750;2022-09-09T01:47:41;14.50;84.20
4376;DHT22;2202;50.866;12.750;2022-09-09T01:50:10;14.40;84.40
4376;DHT22;2202;50.866;12.750;2022-09-09T01:52:38;14.30;85.00
4376;DHT22;2202;50.866;12.750;2022-09-09T01:55:06;14.30;85.20
4376;DHT22;2202;50.866;12.750;2022-09-09T01:57:39;14.30;85.20
4376;DHT22;2202;50.866;12.750;2022-09-09T02:00:11;14.20;86.00
4376;DHT22;2202;50.866;12.750;2022-09-09T02:02:44;14.10;86.40
4376;DHT22;2202;50.866;12.750;2022-09-09T02:05:21;14.00;87.00
4376;DHT22;2202;50.866;12.750;2022-09-09T02:07:59;13.90;87.00
4376;DHT22;2202;50.866;12.750;2022-09-09T02:10:31;13.90;87.20
4376;DHT22;2202;50.866;12.750;2022-09-09T02:13:03;13.90;87.00
4376;DHT22;2202;50.866;12.750;2022-09-09T02:15:34;13.90;87.00
4376;DHT22;2202;50.866;12.750;2022-09-09T02:18:07;13.90;87.00
4376;DHT22;2202;50.866;12.750;2022-09-09T02:20:37;13.90;87.00
4376;DHT22;2202;50.866;12.750;2022-09-09T02:23:05;13.90;87.00
4376;DHT22;2202;50.866;12.750;2022-09-09T02:25:35;13.90;87.00
4376;DHT22;2202;50.866;12.750;2022-09-09T02:28:05;13.90;87.40
4376;DHT22;2202;50.866;12.750;2022-09-09T02:30:35;13.90;87.40
4376;DHT22;2202;50.866;12.750;2022-09-09T02:33:04;13.90;86.80
4376;DHT22;2202;50.866;12.750;2022-09-09T02:35:34;14.00;86.80
4376;DHT22;2202;50.866;12.750;2022-09-09T02:38:07;13.90;87.20
4376;DHT22;2202;50.866;12.750;2022-09-09T02:40:35;14.00;86.80
4376;DHT22;2202;50.866;12.750;2022-09-09T02:43:01;14.20;85.60
4376;DHT22;2202;50.866;12.750;2022-09-09T02:45:33;14.20;85.40
4376;DHT22;2202;50.866;12.750;2022-09-09T02:48:11;14.30;85.40
4376;DHT22;2202;50.866;12.750;2022-09-09T02:50:48;14.30;84.40
4376;DHT22;2202;50.866;12.750;2022-09-09T02:53:18;14.30;84.20
4376;DHT22;2202;50.866;12.750;2022-09-09T02:55:47;14.40;84.00
4376;DHT22;2202;50.866;12.750;2022-09-09T02:58:17;14.40;83.60
4376;DHT22;2202;50.866;12.750;2022-09-09T03:00:46;14.40;83.80
4376;DHT22;2202;50.866;12.750;2022-09-09T03:03:15;14.30;83.80
4376;DHT22;2202;50.866;12.750;2022-09-09T03:05:43;14.30;84.40
4376;DHT22;2202;50.866;12.750;2022-09-09T03:08:10;14.20;84.60
4376;DHT22;2202;50.866;12.750;2022-09-09T03:10:38;14.20;84.40
4376;DHT22;2202;50.866;12.750;2022-09-09T03:13:05;14.20;84.60
4376;DHT22;2202;50.866;12.750;2022-09-09T03:15:33;14.20;84.60
4376;DHT22;2202;50.866;12.750;2022-09-09T03:18:01;14.20;83.80
4376;DHT22;2202;50.866;12.750;2022-09-09T03:20:30;14.20;84.20
4376;DHT22;2202;50.866;12.750;2022-09-09T03:22:59;14.20;83.60
4376;DHT22;2202;50.866;12.750;2022-09-09T03:25:27;14.30;83.40
4376;DHT22;2202;50.866;12.750;2022-09-09T03:27:54;14.30;83.60
4376;DHT22;2202;50.866;12.750;2022-09-09T03:30:21;14.30;83.00
4376;DHT22;2202;50.866;12.750;2022-09-09T03:32:48;14.30;83.00
4376;DHT22;2202;50.866;12.750;2022-09-09T03:35:15;14.30;82.80
4376;DHT22;2202;50.866;12.750;2022-09-09T03:37:44;14.30;82.60
4376;DHT22;2202;50.866;12.750;2022-09-09T03:40:11;14.40;82.80
4376;DHT22;2202;50.866;12.750;2022-09-09T03:42:38;14.40;82.60
4376;DHT22;2202;50.866;12.750;2022-09-09T03:45:07;14.30;82.80
4376;DHT22;2202;50.866;12.750;2022-09-09T03:47:35;14.30;83.20
4376;DHT22;2202;50.866;12.750;2022-09-09T03:50:02;14.30;83.40
4376;DHT22;2202;50.866;12.750;2022-09-09T03:52:29;14.20;83.60
4376;DHT22;2202;50.866;12.750;2022-09-09T03:54:57;14.20;83.40
4376;DHT22;2202;50.866;12.750;2022-09-09T03:57:24;14.20;84.00
4376;DHT22;2202;50.866;12.750;2022-09-09T03:59:51;14.20;83.80
4376;DHT22;2202;50.866;12.750;2022-09-09T04:02:18;14.20;83.60
4376;DHT22;2202;50.866;12.750;2022-09-09T04:04:45;14.20;83.80
4376;DHT22;2202;50.866;12.750;2022-09-09T04:07:11;14.20;84.20
4376;DHT22;2202;50.866;12.750;2022-09-09T04:09:38;14.20;84.00
4376;DHT22;2202;50.866;12.750;2022-09-09T04:12:07;14.30;83.60
4376;DHT22;2202;50.866;12.750;2022-09-09T04:14:33;14.30;83.20
4376;DHT22;2202;50.866;12.750;2022-09-09T04:17:00;14.40;83.20
4376;DHT22;2202;50.866;12.750;2022-09-09T04:19:31;14.40;83.20
4376;DHT22;2202;50.866;12.750;2022-09-09T04:21:58;14.30;83.20
4376;DHT22;2202;50.866;12.750;2022-09-09T04:24:25;14.30;82.40
4376;DHT22;2202;50.866;12.750;2022-09-09T04:26:52;14.30;84.00
4376;DHT22;2202;50.866;12.750;2022-09-09T04:29:21;14.20;84.00
4376;DHT22;2202;50.866;12.750;2022-09-09T04:31:48;14.20;84.00
4376;DHT22;2202;50.866;12.750;2022-09-09T04:34:14;14.20;84.40
4376;DHT22;2202;50.866;12.750;2022-09-09T04:36:41;14.20;84.20
4376;DHT22;2202;50.866;12.750;2022-09-09T04:39:08;14.10;84.80
4376;DHT22;2202;50.866;12.750;2022-09-09T04:41:35;14.10;85.20
4376;DHT22;2202;50.866;12.750;2022-09-09T04:44:03;14.10;85.60
4376;DHT22;2202;50.866;12.750;2022-09-09T04:46:31;14.10;86.20
4376;DHT22;2202;50.866;12.750;2022-09-09T04:48:59;14.00;86.60
4376;DHT22;2202;50.866;12.750;2022-09-09T04:51:26;14.00;86.80
4376;DHT22;2202;50.866;12.750;2022-09-09T04:53:53;14.00;87.00
4376;DHT22;2202;50.866;12.750;2022-09-09T04:56:20;13.90;87.00
4376;DHT22;2202;50.866;12.750;2022-09-09T04:58:47;14.00;87.00
4376;DHT22;2202;50.866;12.750;2022-09-09T05:01:15;14.00;87.20
4376;DHT22;2202;50.866;12.750;2022-09-09T05:03:44;14.00;87.20
4376;DHT22;2202;50.866;12.750;2022-09-09T05:06:13;14.00;87.40
4376;DHT22;2202;50.866;12.750;2022-09-09T05:08:41;14.00;87.20
4376;DHT22;2202;50.866;12.750;2022-09-09T05:11:16;14.10;87.00
4376;DHT22;2202;50.866;12.750;2022-09-09T05:13:43;14.10;86.80
4376;DHT22;2202;50.866;12.750;2022-09-09T05:16:10;14.20;87.00
4376;DHT22;2202;50.866;12.750;2022-09-09T05:18:37;14.20;87.00
4376;DHT22;2202;50.866;12.750;2022-09-09T05:21:06;14.30;87.20
4376;DHT22;2202;50.866;12.750;2022-09-09T05:23:33;14.30;87.20
4376;DHT22;2202;50.866;12.750;2022-09-09T05:26:00;14.30;86.20
4376;DHT22;2202;50.866;12.750;2022-09-09T05:28:28;14.40;86.20
4376;DHT22;2202;50.866;12.750;2022-09-09T05:30:59;14.40;86.60
4376;DHT22;2202;50.866;12.750;2022-09-09T05:33:29;14.40;86.40
4376;DHT22;2202;50.866;12.750;2022-09-09T05:35:57;14.50;86.40
4376;DHT22;2202;50.866;12.750;2022-09-09T05:38:26;14.50;86.40
4376;DHT22;2202;50.866;12.750;2022-09-09T05:40:53;14.60;86.80
4376;DHT22;2202;50.866;12.750;2022-09-09T05:43:20;14.60;86.60
4376;DHT22;2202;50.866;12.750;2022-09-09T05:45:47;14.70;86.60
4376;DHT22;2202;50.866;12.750;2022-09-09T05:48:14;14.70;86.80
4376;DHT22;2202;50.866;12.750;2022-09-09T05:50:42;14.80;86.60
4376;DHT22;2202;50.866;12.750;2022-09-09T05:53:10;14.90;86.80
4376;DHT22;2202;50.866;12.750;2022-09-09T05:55:38;14.90;86.40
4376;DHT22;2202;50.866;12.750;2022-09-09T05:58:06;14.90;86.00
4376;DHT22;2202;50.866;12.750;2022-09-09T06:00:32;15.00;85.80
4376;DHT22;2202;50.866;12.750;2022-09-09T06:02:59;15.10;85.60
4376;DHT22;2202;50.866;12.750;2022-09-09T06:05:26;15.10;85.00
4376;DHT22;2202;50.866;12.750;2022-09-09T06:07:54;15.20;84.60
4376;DHT22;2202;50.866;12.750;2022-09-09T06:10:21;15.30;85.00
4376;DHT22;2202;50.866;12.750;2022-09-09T06:12:52;15.40;84.00
4376;DHT22;2202;50.866;12.750;2022-09-09T06:15:19;15.50;83.20
4376;DHT22;2202;50.866;12.750;2022-09-09T06:17:46;15.60;83.20
4376;DHT22;2202;50.866;12.750;2022-09-09T06:20:14;15.70;83.00
4376;DHT22;2202;50.866;12.750;2022-09-09T06:22:41;15.80;82.80
4376;DHT22;2202;50.866;12.750;2022-09-09T06:25:09;15.90;82.20
4376;DHT22;2202;50.866;12.750;2022-09-09T06:27:36;16.00;82.20
4376;DHT22;2202;50.866;12.750;2022-09-09T06:30:05;16.20;80.00
4376;DHT22;2202;50.866;12.750;2022-09-09T06:32:33;16.40;81.60
4376;DHT22;2202;50.866;12.750;2022-09-09T06:35:02;16.70;80.20
4376;DHT22;2202;50.866;12.750;2022-09-09T06:37:29;16.80;79.40
4376;DHT22;2202;50.866;12.750;2022-09-09T06:39:56;16.80;77.80
4376;DHT22;2202;50.866;12.750;2022-09-09T06:42:23;16.80;77.60
4376;DHT22;2202;50.866;12.750;2022-09-09T06:44:50;16.80;78.00
4376;DHT22;2202;50.866;12.750;2022-09-09T06:47:19;16.70;77.00
4376;DHT22;2202;50.866;12.750;2022-09-09T06:49:46;16.70;77.40
4376;DHT22;2202;50.866;12.750;2022-09-09T06:52:12;16.70;78.00
4376;DHT22;2202;50.866;12.750;2022-09-09T06:54:39;16.70;78.60
4376;DHT22;2202;50.866;12.750;2022-09-09T06:57:06;16.70;78.40
4376;DHT22;2202;50.866;12.750;2022-09-09T06:59:33;16.70;78.20
4376;DHT22;2202;50.866;12.750;2022-09-09T07:02:00;16.80;79.20
4376;DHT22;2202;50.866;12.750;2022-09-09T07:04:28;16.80;77.00
4376;DHT22;2202;50.866;12.750;2022-09-09T07:06:55;16.80;77.00
4376;DHT22;2202;50.866;12.750;2022-09-09T07:09:22;16.80;76.80
4376;DHT22;2202;50.866;12.750;2022-09-09T07:11:50;16.90;77.20
4376;DHT22;2202;50.866;12.750;2022-09-09T07:14:18;16.90;77.20
4376;DHT22;2202;50.866;12.750;2022-09-09T07:16:46;16.90;77.40
4376;DHT22;2202;50.866;12.750;2022-09-09T07:19:14;16.90;77.00
4376;DHT22;2202;50.866;12.750;2022-09-09T07:21:42;16.90;77.00
4376;DHT22;2202;50.866;12.750;2022-09-09T07:24:09;17.00;77.20
4376;DHT22;2202;50.866;12.750;2022-09-09T07:26:38;17.00;76.80
4376;DHT22;2202;50.866;12.750;2022-09-09T07:29:05;17.00;76.20
4376;DHT22;2202;50.866;12.750;2022-09-09T07:31:34;17.10;76.00
4376;DHT22;2202;50.866;12.750;2022-09-09T07:34:02;17.10;76.60
4376;DHT22;2202;50.866;12.750;2022-09-09T07:36:31;17.10;76.60
4376;DHT22;2202;50.866;12.750;2022-09-09T07:39:00;17.10;75.80
4376;DHT22;2202;50.866;12.750;2022-09-09T07:41:30;17.10;78.60
4376;DHT22;2202;50.866;12.750;2022-09-09T07:44:03;17.00;78.00
4376;DHT22;2202;50.866;12.750;2022-09-09T07:46:30;17.00;77.00
4376;DHT22;2202;50.866;12.750;2022-09-09T07:48:57;17.00;78.00
4376;DHT22;2202;50.866;12.750;2022-09-09T07:51:26;17.00;77.60
4376;DHT22;2202;50.866;12.750;2022-09-09T07:53:55;17.00;79.80
4376;DHT22;2202;50.866;12.750;2022-09-09T07:56:25;17.10;81.00
4376;DHT22;2202;50.866;12.750;2022-09-09T07:58:54;17.10;80.80
4376;DHT22;2202;50.866;12.750;2022-09-09T08:01:23;17.20;81.00
4376;DHT22;2202;50.866;12.750;2022-09-09T08:03:54;17.30;81.20
4376;DHT22;2202;50.866;12.750;2022-09-09T08:06:21;17.30;80.40
4376;DHT22;2202;50.866;12.750;2022-09-09T08:08:50;17.30;81.00
4376;DHT22;2202;50.866;12.750;2022-09-09T08:11:18;17.50;81.20
4376;DHT22;2202;50.866;12.750;2022-09-09T08:13:46;17.60;79.20
4376;DHT22;2202;50.866;12.750;2022-09-09T08:16:15;17.70;80.80
4376;DHT22;2202;50.866;12.750;2022-09-09T08:18:43;17.80;80.80
4376;DHT22;2202;50.866;12.750;2022-09-09T08:21:12;17.90;78.20
4376;DHT22;2202;50.866;12.750;2022-09-09T08:23:39;18.00;78.80
4376;DHT22;2202;50.866;12.750;2022-09-09T08:26:10;18.20;78.80
4376;DHT22;2202;50.866;12.750;2022-09-09T08:28:37;18.20;77.40
4376;DHT22;2202;50.866;12.750;2022-09-09T08:31:07;18.30;76.40
4376;DHT22;2202;50.866;12.750;2022-09-09T08:33:34;18.40;76.80
4376;DHT22;2202;50.866;12.750;2022-09-09T08:36:04;18.50;75.80
4376;DHT22;2202;50.866;12.750;2022-09-09T08:38:31;18.70;74.60
4376;DHT22;2202;50.866;12.750;2022-09-09T08:41:12;18.80;74.20
4376;DHT22;2202;50.866;12.750;2022-09-09T08:43:44;18.80;75.60
4376;DHT22;2202;50.866;12.750;2022-09-09T08:46:18;18.80;73.40
4376;DHT22;2202;50.866;12.750;2022-09-09T08:48:55;18.80;73.80
4376;DHT22;2202;50.866;12.750;2022-09-09T08:51:26;18.80;72.80
4376;DHT22;2202;50.866;12.750;2022-09-09T08:53:55;18.70;73.20
4376;DHT22;2202;50.866;12.750;2022-09-09T08:56:26;18.70;72.60
4376;DHT22;2202;50.866;12.750;2022-09-09T08:58:55;18.60;73.20
4376;DHT22;2202;50.866;12.750;2022-09-09T09:01:42;18.70;73.60
4376;DHT22;2202;50.866;12.750;2022-09-09T09:04:22;18.70;74.80
4376;DHT22;2202;50.866;12.750;2022-09-09T09:07:02;18.90;72.80
4376;DHT22;2202;50.866;12.750;2022-09-09T09:09:38;19.60;72.40
4376;DHT22;2202;50.866;12.750;2022-09-09T09:12:15;19.90;66.00
4376;DHT22;2202;50.866;12.750;2022-09-09T09:14:43;20.00;65.00
4376;DHT22;2202;50.866;12.750;2022-09-09T09:17:14;19.90;67.60
4376;DHT22;2202;50.866;12.750;2022-09-09T09:19:42;19.80;66.40
4376;DHT22;2202;50.866;12.750;2022-09-09T09:22:16;19.90;68.40
4376;DHT22;2202;50.866;12.750;2022-09-09T09:24:50;19.90;70.00
4376;DHT22;2202;50.866;12.750;2022-09-09T09:27:25;20.30;67.20
4376;DHT22;2202;50.866;12.750;2022-09-09T09:29:55;20.50;66.60
4376;DHT22;2202;50.866;12.750;2022-09-09T09:32:27;20.60;65.60
4376;DHT22;2202;50.866;12.750;2022-09-09T09:34:56;20.70;66.00
4376;DHT22;2202;50.866;12.750;2022-09-09T09:37:27;21.00;66.80
4376;DHT22;2202;50.866;12.750;2022-09-09T09:39:54;20.90;61.20
4376;DHT22;2202;50.866;12.750;2022-09-09T09:42:22;20.70;63.40
4376;DHT22;2202;50.866;12.750;2022-09-09T09:44:50;20.50;63.60
4376;DHT22;2202;50.866;12.750;2022-09-09T09:47:18;20.50;65.80
4376;DHT22;2202;50.866;12.750;2022-09-09T09:49:54;20.50;62.40
4376;DHT22;2202;50.866;12.750;2022-09-09T09:52:24;20.60;63.40
4376;DHT22;2202;50.866;12.750;2022-09-09T09:54:52;20.40;64.60
4376;DHT22;2202;50.866;12.750;2022-09-09T09:57:26;20.40;66.60
4376;DHT22;2202;50.866;12.750;2022-09-09T10:00:01;20.70;67.60
4376;DHT22;2202;50.866;12.750;2022-09-09T10:02:37;20.90;64.00
4376;DHT22;2202;50.866;12.750;2022-09-09T10:05:13;21.00;63.80
4376;DHT22;2202;50.866;12.750;2022-09-09T10:07:40;21.20;62.60
4376;DHT22;2202;50.866;12.750;2022-09-09T10:10:13;21.20;63.20
4376;DHT22;2202;50.866;12.750;2022-09-09T10:12:51;21.20;59.90
4376;DHT22;2202;50.866;12.750;2022-09-09T10:15:34;21.10;58.50
4376;DHT22;2202;50.866;12.750;2022-09-09T10:18:14;21.20;58.30
4376;DHT22;2202;50.866;12.750;2022-09-09T10:20:53;21.20;63.20
4376;DHT22;2202;50.866;12.750;2022-09-09T10:23:30;21.30;61.80
4376;DHT22;2202;50.866;12.750;2022-09-09T10:26:11;21.60;61.60
4376;DHT22;2202;50.866;12.750;2022-09-09T10:28:57;21.60;56.70
4376;DHT22;2202;50.866;12.750;2022-09-09T10:31:32;21.80;58.70
4376;DHT22;2202;50.866;12.750;2022-09-09T10:34:13;21.80;58.30
4376;DHT22;2202;50.866;12.750;2022-09-09T10:36:47;21.60;56.60
4376;DHT22;2202;50.866;12.750;2022-09-09T10:39:30;21.30;59.90
4376;DHT22;2202;50.866;12.750;2022-09-09T10:42:03;21.10;60.10
4376;DHT22;2202;50.866;12.750;2022-09-09T10:44:53;21.00;59.60
4376;DHT22;2202;50.866;12.750;2022-09-09T10:50:40;21.00;60.40
4376;DHT22;2202;50.866;12.750;2022-09-09T10:53:16;20.60;59.40
4376;DHT22;2202;50.866;12.750;2022-09-09T10:55:50;20.70;63.00
4376;DHT22;2202;50.866;12.750;2022-09-09T10:58:20;21.20;59.80
4376;DHT22;2202;50.866;12.750;2022-09-09T11:00:53;21.40;60.10
4376;DHT22;2202;50.866;12.750;2022-09-09T11:03:23;21.10;57.60
4376;DHT22;2202;50.866;12.750;2022-09-09T11:05:55;21.00;60.10
4376;DHT22;2202;50.866;12.750;2022-09-09T11:08:26;20.90;58.00
4376;DHT22;2202;50.866;12.750;2022-09-09T11:10:58;20.70;59.20
4376;DHT22;2202;50.866;12.750;2022-09-09T11:13:34;20.70;59.00
4376;DHT22;2202;50.866;12.750;2022-09-09T11:16:15;20.60;61.40
4376;DHT22;2202;50.866;12.750;2022-09-09T11:18:45;20.70;62.20
4376;DHT22;2202;50.866;12.750;2022-09-09T11:21:17;20.80;59.90
4376;DHT22;2202;50.866;12.750;2022-09-09T11:23:51;20.90;60.20
4376;DHT22;2202;50.866;12.750;2022-09-09T11:26:28;21.00;58.90
4376;DHT22;2202;50.866;12.750;2022-09-09T11:29:04;21.40;60.40
4376;DHT22;2202;50.866;12.750;2022-09-09T11:31:46;21.80;58.70
4376;DHT22;2202;50.866;12.750;2022-09-09T11:34:26;21.70;59.40
4376;DHT22;2202;50.866;12.750;2022-09-09T11:40:16;22.20;55.90
4376;DHT22;2202;50.866;12.750;2022-09-09T11:42:45;22.20;54.10
4376;DHT22;2202;50.866;12.750;2022-09-09T11:45:22;21.90;56.20
4376;DHT22;2202;50.866;12.750;2022-09-09T11:47:52;21.90;57.10
4376;DHT22;2202;50.866;12.750;2022-09-09T11:50:31;22.10;54.40
4376;DHT22;2202;50.866;12.750;2022-09-09T11:53:17;21.90;54.10
4376;DHT22;2202;50.866;12.750;2022-09-09T11:56:07;21.50;56.70
4376;DHT22;2202;50.866;12.750;2022-09-09T11:58:41;21.50;56.40
4376;DHT22;2202;50.866;12.750;2022-09-09T12:01:25;21.40;56.40
4376;DHT22;2202;50.866;12.750;2022-09-09T12:04:01;21.30;53.00
4376;DHT22;2202;50.866;12.750;2022-09-09T12:06:42;21.40;54.30
4376;DHT22;2202;50.866;12.750;2022-09-09T12:09:18;21.50;55.00
4376;DHT22;2202;50.866;12.750;2022-09-09T12:11:47;21.70;53.50
4376;DHT22;2202;50.866;12.750;2022-09-09T12:14:35;21.70;55.30
4376;DHT22;2202;50.866;12.750;2022-09-09T12:17:24;21.80;53.90
4376;DHT22;2202;50.866;12.750;2022-09-09T12:20:01;21.60;55.90
4376;DHT22;2202;50.866;12.750;2022-09-09T12:22:35;21.90;56.60
4376;DHT22;2202;50.866;12.750;2022-09-09T12:25:09;22.10;53.70
4376;DHT22;2202;50.866;12.750;2022-09-09T12:27:48;22.20;53.90
4376;DHT22;2202;50.866;12.750;2022-09-09T12:30:28;22.20;54.80
4376;DHT22;2202;50.866;12.750;2022-09-09T12:33:01;22.30;54.30
4376;DHT22;2202;50.866;12.750;2022-09-09T12:35:28;22.40;50.90
4376;DHT22;2202;50.866;12.750;2022-09-09T12:37:58;22.30;52.50
4376;DHT22;2202;50.866;12.750;2022-09-09T12:40:28;22.50;52.50
4376;DHT22;2202;50.866;12.750;2022-09-09T12:42:56;22.20;51.60
4376;DHT22;2202;50.866;12.750;2022-09-09T12:45:26;22.00;53.20
4376;DHT22;2202;50.866;12.750;2022-09-09T12:47:56;21.60;50.70
4376;DHT22;2202;50.866;12.750;2022-09-09T12:50:25;21.60;54.30
4376;DHT22;2202;50.866;12.750;2022-09-09T12:52:55;22.00;52.50
4376;DHT22;2202;50.866;12.750;2022-09-09T12:55:27;22.10;50.30
4376;DHT22;2202;50.866;12.750;2022-09-09T12:57:57;22.30;49.10
4376;DHT22;2202;50.866;12.750;2022-09-09T13:00:26;22.50;49.60
4376;DHT22;2202;50.866;12.750;2022-09-09T13:02:55;22.60;48.60
4376;DHT22;2202;50.866;12.750;2022-09-09T13:05:25;22.50;51.80
4376;DHT22;2202;50.866;12.750;2022-09-09T13:08:00;22.80;48.80
4376;DHT22;2202;50.866;12.750;2022-09-09T13:10:29;22.90;48.60
4376;DHT22;2202;50.866;12.750;2022-09-09T13:13:00;22.90;47.70
4376;DHT22;2202;50.866;12.750;2022-09-09T13:15:28;23.00;47.00
4376;DHT22;2202;50.866;12.750;2022-09-09T13:17:57;23.10;45.90
4376;DHT22;2202;50.866;12.750;2022-09-09T13:20:26;23.10;45.60
4376;DHT22;2202;50.866;12.750;2022-09-09T13:22:55;23.00;44.50
4376;DHT22;2202;50.866;12.750;2022-09-09T13:25:25;22.90;45.60
4376;DHT22;2202;50.866;12.750;2022-09-09T13:28:01;23.00;47.50
4376;DHT22;2202;50.866;12.750;2022-09-09T13:30:30;23.10;47.30
4376;DHT22;2202;50.866;12.750;2022-09-09T13:33:21;23.00;44.70
4376;DHT22;2202;50.866;12.750;2022-09-09T13:35:51;23.00;43.10
4376;DHT22;2202;50.866;12.750;2022-09-09T13:38:20;23.00;44.50
4376;DHT22;2202;50.866;12.750;2022-09-09T13:40:55;22.90;44.80
4376;DHT22;2202;50.866;12.750;2022-09-09T13:43:26;23.00;45.90
4376;DHT22;2202;50.866;12.750;2022-09-09T13:45:55;23.20;44.00
4376;DHT22;2202;50.866;12.750;2022-09-09T13:48:23;23.20;42.90
4376;DHT22;2202;50.866;12.750;2022-09-09T13:50:59;23.30;47.00
4376;DHT22;2202;50.866;12.750;2022-09-09T13:53:26;23.20;44.50
4376;DHT22;2202;50.866;12.750;2022-09-09T13:55:54;22.80;44.30
4376;DHT22;2202;50.866;12.750;2022-09-09T13:58:23;22.40;48.60
4376;DHT22;2202;50.866;12.750;2022-09-09T14:00:51;22.30;48.20
4376;DHT22;2202;50.866;12.750;2022-09-09T14:03:18;22.20;49.60
4376;DHT22;2202;50.866;12.750;2022-09-09T14:05:46;22.00;51.20
4376;DHT22;2202;50.866;12.750;2022-09-09T14:08:21;21.90;52.10
4376;DHT22;2202;50.866;12.750;2022-09-09T14:10:49;21.80;52.10
4376;DHT22;2202;50.866;12.750;2022-09-09T14:13:16;21.80;51.90
4376;DHT22;2202;50.866;12.750;2022-09-09T14:15:44;22.10;52.10
4376;DHT22;2202;50.866;12.750;2022-09-09T14:18:11;22.10;50.70
4376;DHT22;2202;50.866;12.750;2022-09-09T14:20:39;21.80;50.00
4376;DHT22;2202;50.866;12.750;2022-09-09T14:23:10;21.60;50.20
4376;DHT22;2202;50.866;12.750;2022-09-09T14:25:40;21.70;52.50
4376;DHT22;2202;50.866;12.750;2022-09-09T14:28:09;21.60;53.70
4376;DHT22;2202;50.866;12.750;2022-09-09T14:30:37;21.40;54.40
4376;DHT22;2202;50.866;12.750;2022-09-09T14:33:05;21.10;53.70
4376;DHT22;2202;50.866;12.750;2022-09-09T14:35:32;21.00;54.80
4376;DHT22;2202;50.866;12.750;2022-09-09T14:37:59;21.00;54.60
4376;DHT22;2202;50.866;12.750;2022-09-09T14:40:27;21.00;53.40
4376;DHT22;2202;50.866;12.750;2022-09-09T14:42:54;21.10;51.40
4376;DHT22;2202;50.866;12.750;2022-09-09T14:45:22;21.10;51.80
4376;DHT22;2202;50.866;12.750;2022-09-09T14:47:49;21.00;52.70
4376;DHT22;2202;50.866;12.750;2022-09-09T14:50:18;21.00;51.20
4376;DHT22;2202;50.866;12.750;2022-09-09T14:52:45;20.90;51.60
4376;DHT22;2202;50.866;12.750;2022-09-09T14:55:12;20.80;52.50
4376;DHT22;2202;50.866;12.750;2022-09-09T14:57:40;20.80;53.00
4376;DHT22;2202;50.866;12.750;2022-09-09T15:00:09;20.70;53.90
4376;DHT22;2202;50.866;12.750;2022-09-09T15:02:36;20.60;55.30
4376;DHT22;2202;50.866;12.750;2022-09-09T15:05:04;20.50;54.10
4376;DHT22;2202;50.866;12.750;2022-09-09T15:07:32;20.30;53.90
4376;DHT22;2202;50.866;12.750;2022-09-09T15:09:59;20.20;55.50
4376;DHT22;2202;50.866;12.750;2022-09-09T15:12:26;20.00;56.70
4376;DHT22;2202;50.866;12.750;2022-09-09T15:14:53;20.00;56.70
4376;DHT22;2202;50.866;12.750;2022-09-09T15:17:21;20.00;55.70
4376;DHT22;2202;50.866;12.750;2022-09-09T15:19:51;19.90;55.90
4376;DHT22;2202;50.866;12.750;2022-09-09T15:22:18;19.90;56.70
4376;DHT22;2202;50.866;12.750;2022-09-09T15:24:47;19.80;56.20
4376;DHT22;2202;50.866;12.750;2022-09-09T15:27:13;19.80;56.90
4376;DHT22;2202;50.866;12.750;2022-09-09T15:29:41;19.70;57.80
4376;DHT22;2202;50.866;12.750;2022-09-09T15:32:09;19.50;57.10
4376;DHT22;2202;50.866;12.750;2022-09-09T15:34:36;19.40;57.60
4376;DHT22;2202;50.866;12.750;2022-09-09T15:37:03;19.40;58.70
4376;DHT22;2202;50.866;12.750;2022-09-09T15:39:31;19.40;58.20
4376;DHT22;2202;50.866;12.750;2022-09-09T15:41:59;19.70;59.00
4376;DHT22;2202;50.866;12.750;2022-09-09T15:44:27;20.00;57.40
4376;DHT22;2202;50.866;12.750;2022-09-09T15:46:54;20.40;56.40
4376;DHT22;2202;50.866;12.750;2022-09-09T15:49:22;20.70;52.30
4376;DHT22;2202;50.866;12.750;2022-09-09T15:51:52;20.70;53.20
4376;DHT22;2202;50.866;12.750;2022-09-09T15:54:21;20.60;53.90
4376;DHT22;2202;50.866;12.750;2022-09-09T15:56:51;20.50;51.80
4376;DHT22;2202;50.866;12.750;2022-09-09T15:59:21;20.50;52.10
4376;DHT22;2202;50.866;12.750;2022-09-09T16:01:48;20.50;54.30
4376;DHT22;2202;50.866;12.750;2022-09-09T16:04:16;20.50;54.80
4376;DHT22;2202;50.866;12.750;2022-09-09T16:06:49;20.20;55.00
4376;DHT22;2202;50.866;12.750;2022-09-09T16:09:17;20.00;55.00
4376;DHT22;2202;50.866;12.750;2022-09-09T16:11:44;19.80;56.20
4376;DHT22;2202;50.866;12.750;2022-09-09T16:14:12;19.80;56.40